Kenneth, Minnesota
Current Conditions -  °F | °C
As of 9:54 PM on Saturday 24 Jan 2015 (Local Time) from KLYV Reporting Station
Drizzle Drizzle  
Wind Chill: 32°   Ceiling: 2300
Heat Index: 36°   Visibility: 10mi
Dew Point: 34°   Wind: 5mph
Humidity: 93%   Direction: 10°N
Pressure: 29.57"   Gusts: NA
Location:  43.75°N, 96.07°W
Report Text: KLYV 250354Z AUTO 01004KT 10SM -DZ OVC023 02/01 A2957 RMK AO2
Loading
Personal Weather Stations






























Interactive Weather Map New forecast layout! Learn more

10-Day Weather Forecast

Advertisements
Track Severe Weather on mobile